Tonic Sea — D5AZ8 — position and weather

sailwx.info

Track history (hours):
 
Tides and Currents Weather Stations Pressure Air Temp Water Temp Dewpoint Dewpoint Depression Visibility Wind Speed Wind Dir Waves Ship Positions

Tonic Sea

Last reported at 2016-Jul-17 19:32 UTC. Time now 2016-Jul-25 14:02 UTC.
Position N 20°45' W 016°60'.

Length 229 m; draft 9.3 m.

Type: Cargo ship. MMSI: 636015479.

Date/timePositionNaut miles runAvg speedWind from/ knotsBaromVisibWave heightAir tempDewpointWater temp
2016-Jul-17 19:32N 20°45' W 016°60'  
2016-Jul-08 16:24N 27°10' W 014°25'1010.3
2016-Jul-08 15:24N 27°17' W 014°17'1110.5
2016-Jul-08 14:18N 27°26' W 014°08'810.8
2016-Jul-08 13:33N 27°31' W 014°02'1110.6
2016-Jul-08 12:33N 27°40' W 013°55'1110.9
2016-Jul-08 11:33N 27°50' W 013°50'1110.8
2016-Jul-08 10:32N 27°60' W 013°44'1110.6
2016-Jul-08 09:28N 28°10' W 013°39'1110.9
2016-Jul-08 08:27N 28°20' W 013°34'1011.5
2016-Jul-08 07:33N 28°30' W 013°29'1211.1
2016-Jul-08 06:27N 28°41' W 013°23'2110.7
2016-Jul-08 04:32N 28°59' W 013°13'1310.8
2016-Jul-08 03:18N 29°11' W 013°07'  
Track history (hours):
 
Tides and Currents Weather Stations Pressure Air Temp Water Temp Dewpoint Dewpoint Depression Visibility Wind Speed Wind Dir Waves Ship Positions

Tonic Sea

Last reported at 2016-Jul-17 19:32 UTC. Time now 2016-Jul-25 14:02 UTC.
Position N 20°45' W 016°60'.

Length 229 m; draft 9.3 m.

Type: Cargo ship. MMSI: 636015479.

Date/timePositionNaut miles runAvg speedWind from/ knotsBaromVisibWave heightAir tempDewpointWater temp
2016-Jul-17 19:32N 20°45' W 016°60'  
2016-Jul-08 16:24N 27°10' W 014°25'1010.3
2016-Jul-08 15:24N 27°17' W 014°17'1110.5
2016-Jul-08 14:18N 27°26' W 014°08'810.8
2016-Jul-08 13:33N 27°31' W 014°02'1110.6
2016-Jul-08 12:33N 27°40' W 013°55'1110.9
2016-Jul-08 11:33N 27°50' W 013°50'1110.8
2016-Jul-08 10:32N 27°60' W 013°44'1110.6
2016-Jul-08 09:28N 28°10' W 013°39'1110.9
2016-Jul-08 08:27N 28°20' W 013°34'1011.5
2016-Jul-08 07:33N 28°30' W 013°29'1211.1
2016-Jul-08 06:27N 28°41' W 013°23'2110.7
2016-Jul-08 04:32N 28°59' W 013°13'1310.8
2016-Jul-08 03:18N 29°11' W 013°07'  

Dump ship's entire track history